• Join FlightAware (Why Join?)
  • Login
  • US Flag 
Gobble Gobble! 
07:17AM EST


 

Airport Tracker/Info


-or-


 

Live Flight TrackerFlight Track Log ✈ N1926Y ✈ 19-May-2013 ✈ KSWF - KCDW

Flight Track Log - Related Links

Times and Time Zones

All times are in EDT time to prevent confusion due to time zone crossing. See the N1926Y flight status page for this flight to view local times or setup timezone preferences in your user account.

Time Position Orientation Groundspeed Altitude Reporting Facility
EDT Latitude Longitude Course Direction KTS MPH feet Rate Location/Type
06:43PM 41.5333 -74.0833 323° Northwest 123 142 2,400  Level New York TRACON
06:44PM 41.5333 -74.1167 270° West 114 131 2,900 540 Climbing New York TRACON
06:45PM 41.5333 -74.1667 270° West 104 120 3,500 540 Climbing New York TRACON
06:46PM 41.5167 -74.2000 236° Southwest 98 113 4,000 240 Climbing New York TRACON
06:47PM 41.5167 -74.2333 270° West 113 130 4,000  Level New York TRACON
06:48PM 41.5000 -74.2667 236° Southwest 122 140 4,000  Level New York TRACON
06:49PM 41.4833 -74.3000 236° Southwest 121 139 4,000  Level New York TRACON
06:50PM 41.4333 -74.3167 194° South 121 139 4,000  Level New York TRACON
06:51PM 41.4167 -74.3167 180° South 120 138 4,000  Level New York TRACON
06:52PM 41.3833 -74.3333 201° Southwest 118 136 4,000  Level New York TRACON
06:53PM 41.3500 -74.3167 159° South 125 144 4,000  Level New York TRACON
06:54PM 41.3167 -74.3000 159° South 125 144 4,000  Level New York TRACON
06:55PM 41.2833 -74.2833 159° South 124 143 4,000 -60 Level New York TRACON
06:56PM 41.2500 -74.2833 180° South 123 142 3,900 -300 Descending New York TRACON
06:57PM 41.2167 -74.2667 159° South 90 104 3,400 -480 Descending New York TRACON
06:58PM 41.2000 -74.2833 217° Southwest 95 109 3,000 -240 Descending New York TRACON
06:59PM 41.1667 -74.3000 201° Southwest 100 115 3,000  Level New York TRACON
07:00PM 41.1500 -74.3167 217° Southwest 117 135 3,000  Level New York TRACON
07:01PM 41.1167 -74.3500 217° Southwest 141 162 3,000  Level New York TRACON
07:02PM 41.1000 -74.3500 180° South 125 144 3,000  Level New York TRACON
07:03PM 41.0833 -74.3000 114° Southeast 122 140 3,000  Level New York TRACON
07:04PM 41.0833 -74.2500 90° East 118 136 3,000  Level New York TRACON
07:05PM 41.0833 -74.2167 90° East 129 148 3,000 -180 Level New York TRACON
07:06PM 41.0500 -74.1833 143° Southeast 118 136 2,700 -540 Descending New York TRACON
07:07PM 41.0333 -74.1667 143° Southeast 136 157 2,000 -300 Descending New York TRACON
07:08PM 41.0000 -74.1833 201° Southwest 129 148 2,100  Climbing New York TRACON
07:09PM 40.9833 -74.2000 217° Southwest 95 109 2,100  Level New York TRACON
07:10PM 40.9500 -74.2167 201° Southwest 90 104 2,100 -300 Level New York TRACON
07:11PM 40.9333 -74.2333 217° Southwest 104 120 1,600 -540 Descending New York TRACON
07:12PM 40.9167 -74.2500 217° Southwest 85 98 1,100 -300 Descending New York TRACON
07:13PM 40.9000 -74.2667 217° Southwest 83 96 1,000 -120 Descending New York TRACON
07:15PM 40.8667 -74.2667 128° Southeast  Level FlightAware Approximate
07:22PM 40.8752 -74.2814 128° Southeast  Level Estimated
07:23PM 40.8752 -74.2814 128° Southeast  Level Estimated
07:24PM 40.8752 -74.2814 128° Southeast  Level Estimated